createdAt,value
2023-05-14T00:01:08.232Z,58.33
2023-05-14T00:04:11.171Z,58.05
2023-05-14T00:07:14.019Z,58.09
2023-05-14T00:10:19.185Z,58.03
2023-05-14T00:13:21.890Z,58.24
2023-05-14T00:16:24.629Z,58.16
2023-05-14T00:19:27.873Z,58.51
2023-05-14T00:22:30.602Z,58.62
2023-05-14T00:25:33.345Z,58.85
2023-05-14T00:28:36.212Z,58.63
2023-05-14T00:31:39.013Z,58.71
2023-05-14T00:34:42.053Z,59.10
2023-05-14T00:37:44.882Z,59.38
2023-05-14T00:40:51.464Z,59.74
2023-05-14T00:43:54.305Z,59.71
2023-05-14T00:46:57.362Z,59.61
2023-05-14T00:50:01.188Z,59.49
2023-05-14T00:53:10.058Z,59.82
2023-05-14T00:56:15.161Z,60.00
2023-05-14T00:59:17.916Z,59.94
2023-05-14T01:02:20.823Z,60.03
2023-05-14T01:05:28.643Z,60.13
2023-05-14T01:09:01.860Z,60.60
2023-05-14T01:12:27.082Z,60.17
2023-05-14T01:15:36.172Z,60.02
2023-05-14T01:18:41.549Z,60.72
2023-05-14T01:21:44.370Z,60.80
2023-05-14T01:24:47.360Z,60.88
2023-05-14T01:28:03.964Z,60.76
2023-05-14T01:31:25.193Z,60.66
2023-05-14T01:34:30.102Z,60.80
2023-05-14T01:37:33.258Z,61.01
2023-05-14T01:40:37.370Z,61.41
2023-05-14T01:43:41.161Z,61.03
2023-05-14T01:46:44.068Z,61.54
2023-05-14T01:49:46.797Z,62.07
2023-05-14T01:52:51.288Z,61.55
2023-05-14T01:55:54.124Z,61.86
2023-05-14T01:58:57.118Z,62.08
2023-05-14T02:02:00.405Z,61.83
2023-05-14T02:05:04.909Z,61.65
2023-05-14T02:08:09.656Z,61.75
2023-05-14T02:11:12.622Z,61.80
2023-05-14T02:14:15.785Z,61.75
2023-05-14T02:17:18.964Z,62.15
2023-05-14T02:20:21.817Z,62.53
2023-05-14T02:23:34.048Z,62.70
2023-05-14T02:26:41.189Z,62.64
2023-05-14T02:29:44.766Z,63.03
2023-05-14T02:32:47.528Z,63.25
2023-05-14T02:35:51.008Z,63.15
2023-05-14T02:38:53.953Z,63.25
2023-05-14T02:41:58.143Z,63.38
2023-05-14T02:45:01.063Z,63.25
2023-05-14T02:48:03.984Z,63.46
2023-05-14T02:51:07.902Z,63.96
2023-05-14T02:54:10.784Z,63.81
2023-05-14T02:57:13.714Z,64.08
2023-05-14T03:00:16.893Z,64.35
2023-05-14T03:03:20.562Z,63.82
2023-05-14T03:06:23.721Z,63.94
2023-05-14T03:09:26.570Z,64.18
2023-05-14T03:12:29.320Z,64.00
2023-05-14T03:15:32.031Z,63.89
2023-05-14T03:18:36.674Z,63.93
2023-05-14T03:21:39.806Z,64.34
2023-05-14T03:24:42.655Z,64.57
2023-05-14T03:27:46.023Z,64.56
2023-05-14T03:30:49.146Z,64.79
2023-05-14T03:33:52.262Z,65.25
2023-05-14T03:36:55.189Z,64.66
2023-05-14T03:39:57.938Z,64.42
2023-05-14T03:43:00.994Z,64.55
2023-05-14T03:46:03.848Z,64.80
2023-05-14T03:49:07.283Z,64.40
2023-05-14T03:52:10.830Z,63.84
2023-05-14T03:55:13.628Z,63.64
2023-05-14T03:58:17.453Z,63.64
2023-05-14T04:01:20.292Z,63.49
2023-05-14T04:04:23.164Z,63.32
2023-05-14T04:07:26.054Z,62.95
2023-05-14T04:10:29.892Z,63.01
2023-05-14T04:13:32.837Z,62.76
2023-05-14T04:16:35.883Z,62.83
2023-05-14T04:19:39.376Z,63.09
2023-05-14T04:22:42.218Z,63.19
2023-05-14T04:25:45.059Z,63.36
2023-05-14T04:28:47.818Z,63.70
2023-05-14T04:31:50.661Z,64.00
2023-05-14T04:34:53.403Z,64.48
2023-05-14T04:37:56.860Z,64.98
2023-05-14T04:40:59.781Z,64.95
2023-05-14T04:44:03.554Z,64.72
2023-05-14T04:47:07.113Z,64.31
2023-05-14T04:50:09.948Z,64.39
2023-05-14T04:53:12.725Z,63.45
2023-05-14T04:56:15.484Z,63.44
2023-05-14T04:59:18.262Z,63.73
2023-05-14T05:02:21.155Z,63.83
2023-05-14T05:05:24.309Z,64.04
2023-05-14T05:08:27.006Z,63.91
2023-05-14T05:11:29.930Z,63.78
2023-05-14T05:14:32.798Z,63.87
2023-05-14T05:17:35.900Z,64.19
2023-05-14T05:20:38.779Z,64.46
2023-05-14T05:23:41.529Z,64.65
2023-05-14T05:26:44.315Z,64.78
2023-05-14T05:29:47.007Z,64.15
2023-05-14T05:32:49.868Z,63.91
2023-05-14T05:35:52.827Z,63.48
2023-05-14T05:38:56.203Z,62.48
2023-05-14T05:41:58.926Z,62.26
2023-05-14T05:45:01.643Z,61.21
2023-05-14T05:48:04.989Z,60.05
2023-05-14T05:51:07.936Z,58.75
2023-05-14T05:54:10.682Z,57.06
2023-05-14T05:57:13.761Z,56.20
2023-05-14T06:00:17.123Z,55.54
2023-05-14T06:03:20.001Z,54.28
2023-05-14T06:06:22.912Z,53.74
2023-05-14T06:09:25.685Z,50.84
2023-05-14T06:12:28.450Z,48.78
2023-05-14T06:15:31.394Z,48.59
2023-05-14T06:18:34.157Z,47.80
2023-05-14T06:21:37.041Z,48.72
2023-05-14T06:24:39.798Z,49.06
2023-05-14T06:27:42.802Z,48.50
2023-05-14T06:30:45.687Z,47.21
2023-05-14T06:33:48.408Z,46.49
2023-05-14T06:36:51.206Z,47.50
2023-05-14T06:39:54.737Z,47.33
2023-05-14T06:42:59.251Z,46.96
2023-05-14T06:46:02.106Z,44.91
2023-05-14T06:49:05.438Z,44.61
2023-05-14T06:52:08.298Z,44.04
2023-05-14T06:55:11.103Z,43.73
2023-05-14T06:58:14.231Z,43.85
2023-05-14T07:01:17.616Z,42.87
2023-05-14T07:04:20.842Z,42.04
2023-05-14T07:07:23.662Z,41.06
2023-05-14T07:10:26.567Z,41.67
2023-05-14T07:13:29.927Z,41.08
2023-05-14T07:16:32.741Z,41.34
2023-05-14T07:19:35.593Z,41.26
2023-05-14T07:22:38.407Z,41.21
2023-05-14T07:25:41.116Z,41.95
2023-05-14T07:28:44.148Z,40.91
2023-05-14T07:31:47.218Z,41.05
2023-05-14T07:34:49.988Z,40.78
2023-05-14T07:37:52.948Z,41.36
2023-05-14T07:40:56.221Z,40.97
2023-05-14T07:43:58.932Z,41.60
2023-05-14T07:47:01.646Z,40.27
2023-05-14T07:50:04.804Z,39.74
2023-05-14T07:53:08.069Z,40.14
2023-05-14T07:56:10.812Z,39.73
2023-05-14T07:59:13.570Z,39.81
2023-05-14T08:02:17.097Z,39.18
2023-05-14T08:05:20.638Z,39.28
2023-05-14T08:08:23.413Z,38.77
2023-05-14T08:11:26.224Z,39.52
2023-05-14T08:14:29.115Z,38.15
2023-05-14T08:17:31.907Z,38.49
2023-05-14T08:20:34.731Z,37.85
2023-05-14T08:23:37.506Z,38.25
2023-05-14T08:26:40.237Z,38.82
2023-05-14T08:29:43.144Z,38.53
2023-05-14T08:32:46.030Z,38.50
2023-05-14T08:35:52.868Z,38.39
2023-05-14T08:38:55.814Z,38.22
2023-05-14T08:42:00.881Z,38.67
2023-05-14T08:45:06.215Z,38.08
2023-05-14T08:48:15.661Z,38.18
2023-05-14T08:51:19.406Z,37.35
2023-05-14T08:54:23.924Z,37.63
2023-05-14T08:57:28.022Z,37.71
2023-05-14T09:00:31.100Z,37.44
2023-05-14T09:03:34.978Z,36.66
2023-05-14T09:06:38.376Z,35.38
2023-05-14T09:09:41.551Z,35.36
2023-05-14T09:12:44.519Z,34.88
2023-05-14T09:15:48.975Z,35.42
2023-05-14T09:18:52.331Z,34.80
2023-05-14T09:22:01.008Z,35.00
2023-05-14T09:25:26.383Z,33.80
2023-05-14T09:28:30.747Z,33.73
2023-05-14T09:31:33.921Z,35.31
2023-05-14T09:34:39.703Z,35.65
2023-05-14T09:37:44.200Z,35.54
2023-05-14T09:40:46.918Z,36.19
2023-05-14T09:43:51.447Z,35.68
2023-05-14T09:46:55.116Z,34.39
2023-05-14T09:49:57.888Z,33.98
2023-05-14T09:53:01.003Z,34.60
2023-05-14T09:56:03.874Z,34.72
2023-05-14T09:59:06.586Z,34.20
2023-05-14T10:02:26.288Z,34.54
2023-05-14T10:05:29.753Z,34.80
2023-05-14T10:08:41.328Z,33.97
2023-05-14T10:11:45.585Z,33.86
2023-05-14T10:14:53.304Z,33.89
2023-05-14T10:18:00.954Z,34.04
2023-05-14T10:21:08.072Z,33.98
2023-05-14T10:24:11.417Z,33.28
2023-05-14T10:27:15.329Z,33.68
2023-05-14T10:30:23.207Z,34.25
2023-05-14T10:33:27.321Z,32.84
2023-05-14T10:36:30.169Z,32.76
2023-05-14T10:39:51.243Z,33.29
2023-05-14T10:42:59.194Z,32.94
2023-05-14T10:46:02.970Z,32.95
2023-05-14T10:49:06.038Z,33.33
2023-05-14T10:52:09.548Z,33.28
2023-05-14T10:55:16.909Z,33.68
2023-05-14T10:58:19.750Z,34.69
2023-05-14T11:01:24.282Z,35.24
2023-05-14T11:04:28.230Z,34.68
2023-05-14T11:07:33.822Z,34.02
2023-05-14T11:10:39.007Z,33.33
2023-05-14T11:13:42.913Z,32.44
2023-05-14T11:16:47.434Z,32.91
2023-05-14T11:19:51.232Z,31.87
2023-05-14T11:22:55.390Z,32.10
2023-05-14T11:25:58.342Z,32.84
2023-05-14T11:29:01.321Z,33.66
2023-05-14T11:32:06.734Z,32.34
2023-05-14T11:35:10.189Z,32.51
2023-05-14T11:38:21.285Z,33.46
2023-05-14T11:41:24.528Z,33.23
2023-05-14T11:44:27.408Z,34.12
2023-05-14T11:47:31.732Z,33.47
2023-05-14T11:50:36.721Z,33.84
2023-05-14T11:53:39.553Z,33.43
2023-05-14T11:56:42.285Z,33.38
2023-05-14T11:59:46.276Z,34.62
2023-05-14T12:02:50.143Z,35.00
2023-05-14T12:06:00.716Z,34.32
2023-05-14T12:09:05.904Z,34.94
2023-05-14T12:12:12.408Z,33.92
2023-05-14T12:15:17.428Z,33.74
2023-05-14T12:18:24.577Z,34.20
2023-05-14T12:21:29.401Z,34.08
2023-05-14T12:24:32.154Z,33.94
2023-05-14T12:27:37.753Z,34.30
2023-05-14T12:30:41.338Z,33.43
2023-05-14T12:33:44.072Z,33.80
2023-05-14T12:36:46.815Z,34.59
2023-05-14T12:39:49.878Z,34.32
2023-05-14T12:42:54.048Z,34.07
2023-05-14T12:45:57.809Z,34.24
2023-05-14T12:49:00.593Z,33.64
2023-05-14T12:52:22.815Z,34.43
2023-05-14T12:55:28.190Z,34.80
2023-05-14T12:58:30.903Z,34.74
2023-05-14T13:01:33.790Z,34.24
2023-05-14T13:04:37.437Z,33.77
2023-05-14T13:07:40.642Z,33.42
2023-05-14T13:10:44.667Z,33.36
2023-05-14T13:13:47.585Z,34.19
2023-05-14T13:16:50.852Z,33.45
2023-05-14T13:19:53.777Z,33.25
2023-05-14T13:22:57.225Z,33.15
2023-05-14T13:25:59.957Z,33.38
2023-05-14T13:29:02.915Z,33.44
2023-05-14T13:32:06.274Z,33.93
2023-05-14T13:35:09.576Z,33.17
2023-05-14T13:38:12.297Z,33.69
2023-05-14T13:41:15.060Z,33.61
2023-05-14T13:44:17.915Z,34.43
2023-05-14T13:47:20.729Z,34.06
2023-05-14T13:50:23.573Z,33.02
2023-05-14T13:53:27.242Z,33.35
2023-05-14T13:56:30.036Z,33.58
2023-05-14T13:59:32.999Z,34.61
2023-05-14T14:02:35.770Z,34.27
2023-05-14T14:05:38.918Z,34.28
2023-05-14T14:08:41.794Z,34.84
2023-05-14T14:11:44.885Z,34.62
2023-05-14T14:14:48.207Z,34.65
2023-05-14T14:17:51.051Z,34.62
2023-05-14T14:20:53.807Z,33.25
2023-05-14T14:23:56.550Z,33.83
2023-05-14T14:26:59.295Z,34.84
2023-05-14T14:30:02.247Z,34.44
2023-05-14T14:33:05.373Z,34.81
2023-05-14T14:36:09.060Z,34.84
2023-05-14T14:39:11.864Z,34.65
2023-05-14T14:42:14.674Z,35.18
2023-05-14T14:45:17.737Z,35.56
2023-05-14T14:48:28.347Z,35.12
2023-05-14T14:51:31.631Z,35.57
2023-05-14T14:54:34.359Z,35.13
2023-05-14T14:57:37.110Z,34.89
2023-05-14T15:00:40.413Z,35.74
2023-05-14T15:03:45.786Z,35.48
2023-05-14T15:06:48.913Z,35.11
2023-05-14T15:09:51.659Z,35.58
2023-05-14T15:12:57.863Z,35.78
2023-05-14T15:16:00.791Z,35.30
2023-05-14T15:19:03.730Z,35.54
2023-05-14T15:22:06.564Z,35.56
2023-05-14T15:25:09.755Z,36.20
2023-05-14T15:28:12.488Z,36.37
2023-05-14T15:31:15.985Z,35.78
2023-05-14T15:34:18.763Z,35.87
2023-05-14T15:37:23.878Z,35.99
2023-05-14T15:40:29.793Z,36.52
2023-05-14T15:43:32.573Z,36.24
2023-05-14T15:46:35.807Z,36.33
2023-05-14T15:49:38.744Z,36.18
2023-05-14T15:52:41.582Z,36.73
2023-05-14T15:55:44.736Z,36.87
2023-05-14T15:58:48.474Z,37.67
2023-05-14T16:01:51.479Z,37.91
2023-05-14T16:04:54.290Z,37.86
2023-05-14T16:07:57.094Z,37.91
2023-05-14T16:10:59.898Z,37.37
2023-05-14T16:14:02.729Z,37.62
2023-05-14T16:17:05.559Z,38.47
2023-05-14T16:20:09.155Z,38.99
2023-05-14T16:23:11.963Z,38.66
2023-05-14T16:26:14.705Z,39.35
2023-05-14T16:29:17.760Z,39.31
2023-05-14T16:32:21.738Z,38.77
2023-05-14T16:35:24.568Z,39.00
2023-05-14T16:38:27.336Z,39.15
2023-05-14T16:41:30.258Z,39.44
2023-05-14T16:44:33.048Z,40.07
2023-05-14T16:47:35.841Z,39.96
2023-05-14T16:50:38.727Z,40.30
2023-05-14T16:53:41.439Z,40.67
2023-05-14T16:56:48.157Z,40.76
2023-05-14T16:59:51.317Z,41.06
2023-05-14T17:02:54.343Z,41.30
2023-05-14T17:05:57.318Z,41.43
2023-05-14T17:09:00.167Z,41.73
2023-05-14T17:12:03.303Z,42.01
2023-05-14T17:15:07.310Z,42.37
2023-05-14T17:18:12.066Z,42.60
2023-05-14T17:21:15.238Z,42.80
2023-05-14T17:24:18.333Z,42.86
2023-05-14T17:27:21.470Z,43.10
2023-05-14T17:30:24.992Z,43.19
2023-05-14T17:33:28.530Z,43.28
2023-05-14T17:36:32.391Z,43.38
2023-05-14T17:39:35.924Z,43.46
2023-05-14T17:42:39.107Z,43.37
2023-05-14T17:45:53.031Z,43.42
2023-05-14T17:48:58.396Z,43.62
2023-05-14T17:52:02.182Z,43.73
2023-05-14T17:55:05.587Z,43.93
2023-05-14T17:58:08.508Z,43.93
2023-05-14T18:01:11.667Z,44.47
2023-05-14T18:04:15.113Z,44.86
2023-05-14T18:07:19.228Z,45.32
2023-05-14T18:10:22.025Z,45.95
2023-05-14T18:13:24.870Z,46.04
2023-05-14T18:16:28.415Z,46.07
2023-05-14T18:19:31.344Z,46.42
2023-05-14T18:22:34.099Z,46.40
2023-05-14T18:25:36.894Z,47.05
2023-05-14T18:28:39.967Z,47.21
2023-05-14T18:31:42.670Z,47.68
2023-05-14T18:34:45.370Z,47.78
2023-05-14T18:37:48.142Z,47.90
2023-05-14T18:40:51.100Z,48.09
2023-05-14T18:43:53.830Z,48.35
2023-05-14T18:46:56.673Z,48.64
2023-05-14T18:50:02.107Z,48.71
2023-05-14T18:53:05.435Z,48.95
2023-05-14T18:56:09.669Z,49.21
2023-05-14T18:59:12.446Z,49.30
2023-05-14T19:02:15.380Z,49.45
2023-05-14T19:05:18.260Z,49.70
2023-05-14T19:08:21.157Z,49.73
2023-05-14T19:11:24.075Z,49.76
2023-05-14T19:14:26.829Z,49.75
2023-05-14T19:17:32.769Z,49.89
2023-05-14T19:20:35.794Z,50.16
2023-05-14T19:23:39.443Z,50.34
2023-05-14T19:26:42.238Z,50.46
2023-05-14T19:29:45.112Z,50.68
2023-05-14T19:32:48.460Z,50.35
2023-05-14T19:35:52.101Z,50.10
2023-05-14T19:38:54.935Z,50.27
2023-05-14T19:41:57.688Z,50.26
2023-05-14T19:45:00.575Z,50.38
2023-05-14T19:48:06.166Z,50.30
2023-05-14T19:51:09.119Z,50.73
2023-05-14T19:54:11.925Z,50.40
2023-05-14T19:57:14.821Z,50.84
2023-05-14T20:00:17.865Z,50.79
2023-05-14T20:03:31.194Z,50.61
2023-05-14T20:06:34.317Z,50.58
2023-05-14T20:09:37.088Z,50.66
2023-05-14T20:12:40.020Z,50.86
2023-05-14T20:15:43.373Z,50.83
2023-05-14T20:18:46.336Z,50.99
2023-05-14T20:21:49.081Z,51.23
2023-05-14T20:24:52.883Z,51.17
2023-05-14T20:27:55.723Z,51.26
2023-05-14T20:31:03.988Z,51.17
2023-05-14T20:34:07.060Z,51.04
2023-05-14T20:37:10.175Z,51.00
2023-05-14T20:40:13.071Z,51.16
2023-05-14T20:43:16.119Z,51.30
2023-05-14T20:46:19.088Z,51.71
2023-05-14T20:49:21.948Z,51.61
2023-05-14T20:52:25.097Z,51.40
2023-05-14T20:55:28.202Z,51.83
2023-05-14T20:58:31.050Z,51.73
2023-05-14T21:01:33.835Z,51.65
2023-05-14T21:04:36.646Z,51.19
2023-05-14T21:07:39.735Z,51.25
2023-05-14T21:10:42.488Z,51.20
2023-05-14T21:13:45.259Z,51.12
2023-05-14T21:16:48.620Z,51.08
2023-05-14T21:19:51.731Z,51.22
2023-05-14T21:22:54.496Z,50.98
2023-05-14T21:25:57.927Z,51.21
2023-05-14T21:29:00.929Z,51.18
2023-05-14T21:32:04.088Z,51.07
2023-05-14T21:35:07.493Z,51.09
2023-05-14T21:38:10.339Z,51.06
2023-05-14T21:41:13.323Z,51.06
2023-05-14T21:44:16.099Z,50.98
2023-05-14T21:47:19.880Z,51.01
2023-05-14T21:50:22.617Z,50.98
2023-05-14T21:53:25.344Z,51.02
2023-05-14T21:56:28.153Z,50.99
2023-05-14T21:59:30.873Z,50.99
2023-05-14T22:02:33.614Z,50.95
2023-05-14T22:05:36.522Z,50.99
2023-05-14T22:08:39.218Z,51.05
2023-05-14T22:11:41.933Z,50.98
2023-05-14T22:14:44.808Z,50.93
2023-05-14T22:17:48.202Z,51.10
2023-05-14T22:20:51.296Z,51.20
2023-05-14T22:23:54.132Z,51.14
2023-05-14T22:27:22.206Z,51.24
2023-05-14T22:30:25.114Z,51.19
2023-05-14T22:33:27.865Z,51.06
2023-05-14T22:36:30.645Z,51.12
2023-05-14T22:39:33.468Z,51.23
2023-05-14T22:42:36.200Z,51.21
2023-05-14T22:45:38.923Z,51.37
2023-05-14T22:48:42.222Z,51.27
2023-05-14T22:51:44.979Z,51.38
2023-05-14T22:54:51.029Z,51.50
2023-05-14T22:57:53.954Z,51.55
2023-05-14T23:00:57.278Z,51.68
2023-05-14T23:04:00.238Z,51.78
2023-05-14T23:07:03.157Z,51.96
2023-05-14T23:10:06.732Z,52.03
2023-05-14T23:13:09.504Z,52.16
2023-05-14T23:16:12.267Z,52.09
2023-05-14T23:19:15.207Z,52.14
2023-05-14T23:22:18.547Z,52.09
2023-05-14T23:25:21.254Z,51.99
2023-05-14T23:28:24.153Z,52.22
2023-05-14T23:31:26.907Z,52.42
2023-05-14T23:34:29.624Z,52.31
2023-05-14T23:37:33.703Z,52.31
2023-05-14T23:40:36.582Z,52.73
2023-05-14T23:43:39.402Z,52.60
2023-05-14T23:46:42.169Z,52.46
2023-05-14T23:49:44.958Z,52.23
2023-05-14T23:52:47.694Z,52.22
2023-05-14T23:55:50.754Z,52.46
2023-05-14T23:58:53.828Z,52.74
